createdAt,value
2022-10-19T00:01:59.401Z,97.67
2022-10-19T00:04:30.242Z,97.68
2022-10-19T00:07:00.628Z,97.81
2022-10-19T00:09:30.467Z,97.18
2022-10-19T00:12:00.338Z,97.76
2022-10-19T00:14:30.653Z,97.95
2022-10-19T00:17:00.438Z,97.11
2022-10-19T00:19:30.720Z,97.54
2022-10-19T00:22:01.407Z,97.74
2022-10-19T00:24:35.479Z,97.40
2022-10-19T00:27:09.124Z,97.99
2022-10-19T00:29:40.597Z,97.78
2022-10-19T00:32:10.730Z,97.66
2022-10-19T00:34:40.681Z,97.89
2022-10-19T00:37:10.945Z,97.91
2022-10-19T00:39:40.611Z,97.30
2022-10-19T00:42:13.653Z,97.72
2022-10-19T00:44:46.906Z,97.72
2022-10-19T00:47:18.119Z,97.53
2022-10-19T00:49:48.917Z,97.66
2022-10-19T00:52:23.505Z,97.57
2022-10-19T00:54:55.531Z,97.80
2022-10-19T00:57:29.868Z,97.68
2022-10-19T01:00:02.527Z,97.82
2022-10-19T01:02:33.191Z,97.59
2022-10-19T01:05:04.261Z,97.72
2022-10-19T01:07:34.708Z,97.67
2022-10-19T01:10:06.321Z,97.49
2022-10-19T01:13:04.286Z,97.41
2022-10-19T01:15:48.563Z,97.49
2022-10-19T01:18:37.018Z,97.45
2022-10-19T01:21:24.001Z,97.42
2022-10-19T01:24:20.271Z,97.22
2022-10-19T01:27:23.508Z,97.45
2022-10-19T01:30:15.380Z,97.38
2022-10-19T01:32:57.585Z,97.40
2022-10-19T01:35:59.650Z,97.51
2022-10-19T01:38:39.101Z,97.91
2022-10-19T01:41:35.952Z,97.79
2022-10-19T01:44:06.157Z,97.46
2022-10-19T01:46:45.053Z,97.44
2022-10-19T01:49:46.449Z,97.31
2022-10-19T01:52:17.941Z,96.92
2022-10-19T01:54:53.845Z,97.11
2022-10-19T01:57:33.968Z,97.26
2022-10-19T02:00:08.631Z,97.10
2022-10-19T02:02:51.934Z,97.14
2022-10-19T02:05:25.937Z,97.31
2022-10-19T02:08:01.978Z,97.57
2022-10-19T02:10:35.200Z,97.34
2022-10-19T02:13:06.343Z,97.39
2022-10-19T02:15:41.818Z,97.43
2022-10-19T02:18:14.964Z,97.19
2022-10-19T02:20:45.305Z,97.13
2022-10-19T02:23:19.030Z,97.06
2022-10-19T02:25:49.752Z,97.49
2022-10-19T02:28:20.654Z,97.92
2022-10-19T02:30:51.208Z,97.76
2022-10-19T02:33:21.741Z,97.50
2022-10-19T02:35:52.167Z,97.85
2022-10-19T02:38:25.241Z,98.01
2022-10-19T02:41:19.617Z,97.50
2022-10-19T02:43:53.170Z,97.24
2022-10-19T02:46:33.387Z,97.37
2022-10-19T02:49:05.687Z,97.38
2022-10-19T02:51:57.144Z,97.38
2022-10-19T02:54:27.514Z,97.34
2022-10-19T02:56:58.022Z,97.19
2022-10-19T02:59:28.542Z,97.46
2022-10-19T03:01:58.708Z,97.35
2022-10-19T03:04:28.608Z,97.33
2022-10-19T03:06:58.766Z,97.25
2022-10-19T03:09:29.432Z,97.88
2022-10-19T03:11:59.643Z,97.81
2022-10-19T03:14:29.863Z,97.52
2022-10-19T03:17:00.078Z,97.93
2022-10-19T03:19:30.304Z,97.51
2022-10-19T03:22:00.478Z,97.55
2022-10-19T03:24:32.514Z,97.88
2022-10-19T03:27:02.809Z,96.97
2022-10-19T03:29:33.456Z,97.07
2022-10-19T03:32:03.659Z,97.39
2022-10-19T03:34:34.001Z,97.58
2022-10-19T03:37:04.259Z,97.34
2022-10-19T03:39:34.365Z,97.31
2022-10-19T03:42:04.104Z,96.93
2022-10-19T03:44:34.307Z,97.23
2022-10-19T03:47:04.532Z,97.40
2022-10-19T03:49:36.819Z,97.44
2022-10-19T03:52:11.243Z,97.43
2022-10-19T03:54:41.524Z,97.71
2022-10-19T03:57:11.878Z,97.51
2022-10-19T03:59:41.636Z,97.11
2022-10-19T04:02:11.468Z,97.59
2022-10-19T04:04:41.589Z,97.50
2022-10-19T04:07:11.728Z,97.37
2022-10-19T04:09:41.878Z,97.44
2022-10-19T04:12:12.074Z,97.59
2022-10-19T04:14:56.193Z,97.50
2022-10-19T04:17:27.986Z,97.98
2022-10-19T04:19:57.540Z,97.53
2022-10-19T04:22:27.370Z,97.73
2022-10-19T04:24:57.667Z,97.87
2022-10-19T04:27:27.316Z,97.59
2022-10-19T04:29:57.161Z,98.04
2022-10-19T04:32:27.314Z,98.19
2022-10-19T04:34:57.590Z,98.25
2022-10-19T04:37:27.762Z,98.22
2022-10-19T04:39:57.924Z,98.13
2022-10-19T04:42:28.115Z,98.07
2022-10-19T04:44:58.360Z,98.10
2022-10-19T04:47:30.216Z,98.31
2022-10-19T04:50:00.567Z,98.14
2022-10-19T04:52:30.315Z,97.76
2022-10-19T04:55:00.430Z,98.38
2022-10-19T04:57:31.435Z,98.15
2022-10-19T05:00:02.003Z,98.19
2022-10-19T05:02:31.645Z,97.81
2022-10-19T05:05:01.518Z,97.90
2022-10-19T05:07:31.982Z,98.08
2022-10-19T05:10:02.449Z,98.31
2022-10-19T05:12:32.063Z,97.91
2022-10-19T05:15:02.176Z,98.27
2022-10-19T05:17:35.563Z,98.32
2022-10-19T05:20:06.254Z,98.55
2022-10-19T05:22:36.450Z,98.72
2022-10-19T05:25:08.142Z,98.78
2022-10-19T05:27:38.588Z,98.65
2022-10-19T05:30:09.687Z,98.79
2022-10-19T05:32:40.271Z,98.74
2022-10-19T05:35:10.668Z,98.66
2022-10-19T05:37:40.934Z,98.82
2022-10-19T05:40:12.007Z,99.01
2022-10-19T05:42:42.288Z,98.91
2022-10-19T05:45:12.813Z,98.89
2022-10-19T05:47:43.088Z,98.72
2022-10-19T05:50:13.299Z,98.54
2022-10-19T05:52:43.448Z,98.80
2022-10-19T05:55:13.181Z,98.46
2022-10-19T05:57:43.329Z,98.71
2022-10-19T06:00:14.088Z,98.47
2022-10-19T06:02:44.959Z,98.60
2022-10-19T06:05:15.269Z,98.80
2022-10-19T06:07:45.491Z,99.06
2022-10-19T06:10:15.745Z,98.78
2022-10-19T06:12:45.987Z,98.53
2022-10-19T06:15:16.265Z,98.69
2022-10-19T06:17:46.044Z,98.24
2022-10-19T06:20:16.276Z,98.56
2022-10-19T06:22:45.917Z,98.37
2022-10-19T06:25:18.110Z,98.91
2022-10-19T06:27:50.650Z,99.02
2022-10-19T06:30:20.853Z,99.41
2022-10-19T06:32:51.869Z,99.32
2022-10-19T06:35:22.553Z,99.41
2022-10-19T06:37:53.126Z,99.16
2022-10-19T06:40:23.284Z,99.49
2022-10-19T06:42:53.707Z,99.36
2022-10-19T06:45:23.524Z,99.01
2022-10-19T06:47:53.424Z,99.27
2022-10-19T06:50:24.474Z,99.71
2022-10-19T06:52:54.712Z,99.72
2022-10-19T06:55:24.798Z,99.41
2022-10-19T06:57:54.742Z,99.39
2022-10-19T07:00:24.626Z,99.25
2022-10-19T07:02:54.603Z,99.37
2022-10-19T07:05:24.924Z,99.27
2022-10-19T07:07:56.635Z,99.28
2022-10-19T07:10:26.330Z,99.26
2022-10-19T07:12:58.373Z,99.77
2022-10-19T07:15:28.884Z,99.54
2022-10-19T07:17:59.115Z,99.49
2022-10-19T07:20:29.309Z,99.50
2022-10-19T07:22:59.579Z,99.29
2022-10-19T07:25:31.278Z,99.35
2022-10-19T07:28:01.729Z,99.69
2022-10-19T07:30:31.429Z,99.35
2022-10-19T07:33:01.696Z,99.59
2022-10-19T07:35:31.994Z,99.71
2022-10-19T07:38:02.209Z,99.56
2022-10-19T07:40:32.396Z,99.84
2022-10-19T07:43:02.796Z,99.99
2022-10-19T07:45:33.638Z,99.62
2022-10-19T07:48:03.905Z,99.60
2022-10-19T07:50:33.496Z,99.22
2022-10-19T07:53:06.573Z,99.49
2022-10-19T07:55:36.970Z,99.61
2022-10-19T07:58:07.202Z,99.44
2022-10-19T08:00:37.375Z,99.40
2022-10-19T08:06:02.463Z,99.21
2022-10-19T08:08:33.030Z,99.49
2022-10-19T08:11:17.169Z,99.44
2022-10-19T08:13:48.453Z,99.10
2022-10-19T08:16:45.829Z,99.18
2022-10-19T08:19:17.810Z,99.17
2022-10-19T08:21:48.822Z,99.02
2022-10-19T08:24:20.456Z,98.91
2022-10-19T08:26:52.511Z,99.21
2022-10-19T08:29:25.498Z,99.47
2022-10-19T08:31:57.920Z,99.58
2022-10-19T08:34:28.700Z,99.23
2022-10-19T08:36:58.820Z,99.41
2022-10-19T08:39:29.003Z,99.19
2022-10-19T08:42:03.738Z,98.82
2022-10-19T08:44:36.654Z,99.06
2022-10-19T08:47:36.819Z,99.13
2022-10-19T08:50:27.082Z,99.20
2022-10-19T08:53:09.364Z,99.13
2022-10-19T08:56:07.145Z,99.28
2022-10-19T08:58:55.931Z,99.00
2022-10-19T09:01:48.217Z,99.34
2022-10-19T09:04:33.147Z,99.25
2022-10-19T09:07:09.377Z,99.44
2022-10-19T09:12:46.959Z,99.37
2022-10-19T09:15:22.109Z,99.38
2022-10-19T09:17:52.431Z,99.13
2022-10-19T09:20:24.272Z,98.77
2022-10-19T09:23:29.295Z,98.64
2022-10-19T09:26:00.089Z,98.85
2022-10-19T09:28:54.752Z,98.49
2022-10-19T09:31:39.582Z,98.39
2022-10-19T09:34:23.524Z,98.38
2022-10-19T09:36:58.915Z,98.49
2022-10-19T09:39:32.018Z,98.35
2022-10-19T09:42:07.557Z,98.13
2022-10-19T09:44:38.340Z,97.87
2022-10-19T09:47:26.933Z,98.19
2022-10-19T09:50:17.165Z,98.05
2022-10-19T09:52:52.840Z,98.39
2022-10-19T09:55:37.644Z,97.70
2022-10-19T09:58:19.152Z,97.41
2022-10-19T10:00:57.561Z,97.21
2022-10-19T10:03:44.638Z,96.82
2022-10-19T10:06:18.015Z,96.77
2022-10-19T10:08:59.210Z,97.27
2022-10-19T10:11:40.343Z,97.37
2022-10-19T10:14:41.187Z,97.62
2022-10-19T10:17:24.711Z,97.14
2022-10-19T10:20:08.120Z,96.68
2022-10-19T10:22:39.289Z,96.80
2022-10-19T10:25:19.933Z,96.72
2022-10-19T10:28:24.911Z,96.90
2022-10-19T10:31:07.167Z,96.23
2022-10-19T10:33:44.580Z,96.45
2022-10-19T10:36:16.915Z,95.47
2022-10-19T10:38:52.367Z,95.85
2022-10-19T10:41:25.170Z,95.94
2022-10-19T10:44:05.603Z,95.82
2022-10-19T10:46:51.157Z,95.79
2022-10-19T10:49:38.821Z,95.35
2022-10-19T10:52:13.909Z,95.08
2022-10-19T10:55:16.198Z,95.79
2022-10-19T10:57:53.489Z,95.21
2022-10-19T11:00:28.104Z,95.36
2022-10-19T11:03:03.539Z,94.63
2022-10-19T11:05:38.086Z,94.98
2022-10-19T11:08:42.581Z,94.37
2022-10-19T11:11:17.935Z,94.05
2022-10-19T11:13:58.417Z,93.67
2022-10-19T11:16:43.805Z,92.94
2022-10-19T11:19:33.780Z,92.84
2022-10-19T11:22:06.981Z,91.94
2022-10-19T11:24:59.877Z,91.49
2022-10-19T11:28:05.377Z,91.61
2022-10-19T11:30:50.536Z,91.24
2022-10-19T11:33:20.922Z,91.46
2022-10-19T11:35:55.561Z,90.96
2022-10-19T11:38:55.646Z,91.58
2022-10-19T11:41:37.728Z,90.52
2022-10-19T11:44:17.125Z,90.99
2022-10-19T11:47:12.068Z,91.00
2022-10-19T11:49:42.353Z,90.27
2022-10-19T11:52:24.662Z,90.56
2022-10-19T11:55:13.462Z,89.87
2022-10-19T11:57:43.119Z,89.94
2022-10-19T12:00:39.791Z,90.42
2022-10-19T12:03:46.712Z,89.19
2022-10-19T12:06:39.771Z,89.35
2022-10-19T12:09:24.965Z,89.93
2022-10-19T12:11:58.009Z,88.86
2022-10-19T12:14:33.620Z,88.83
2022-10-19T12:17:16.552Z,88.65
2022-10-19T12:19:51.148Z,88.58
2022-10-19T12:22:31.873Z,88.09
2022-10-19T12:25:03.694Z,88.45
2022-10-19T12:27:41.980Z,88.24
2022-10-19T12:30:22.931Z,87.60
2022-10-19T12:33:13.904Z,87.39
2022-10-19T12:35:54.279Z,86.95
2022-10-19T12:38:42.305Z,86.57
2022-10-19T12:41:28.328Z,86.13
2022-10-19T12:44:10.785Z,84.53
2022-10-19T12:46:51.299Z,85.38
2022-10-19T12:49:59.700Z,85.24
2022-10-19T12:53:02.083Z,84.97
2022-10-19T12:55:36.252Z,84.81
2022-10-19T12:58:24.398Z,85.47
2022-10-19T13:01:02.860Z,84.96
2022-10-19T13:03:38.864Z,85.74
2022-10-19T13:06:33.908Z,84.73
2022-10-19T13:09:06.010Z,82.82
2022-10-19T13:11:37.522Z,81.11
2022-10-19T13:14:16.775Z,83.21
2022-10-19T13:17:05.912Z,81.53
2022-10-19T13:19:36.970Z,81.28
2022-10-19T13:22:27.515Z,82.66
2022-10-19T13:25:20.073Z,82.62
2022-10-19T13:27:57.268Z,82.67
2022-10-19T13:30:45.671Z,82.50
2022-10-19T13:33:30.811Z,83.06
2022-10-19T13:36:01.025Z,83.73
2022-10-19T13:38:49.922Z,83.23
2022-10-19T13:41:45.640Z,82.47
2022-10-19T13:44:17.496Z,81.66
2022-10-19T13:47:03.025Z,81.63
2022-10-19T13:50:09.571Z,82.55
2022-10-19T13:52:48.843Z,81.15
2022-10-19T13:55:47.147Z,80.88
2022-10-19T13:58:23.773Z,81.27
2022-10-19T14:01:28.803Z,81.85
2022-10-19T14:04:22.625Z,80.21
2022-10-19T14:07:02.909Z,81.36
2022-10-19T14:09:42.412Z,78.92
2022-10-19T14:12:31.147Z,79.67
2022-10-19T14:15:01.659Z,80.83
2022-10-19T14:17:43.576Z,79.59
2022-10-19T14:20:33.570Z,80.66
2022-10-19T14:23:26.733Z,80.23
2022-10-19T14:26:08.061Z,78.64
2022-10-19T14:28:38.700Z,78.93
2022-10-19T14:31:20.146Z,77.33
2022-10-19T14:33:55.539Z,77.73
2022-10-19T14:36:30.770Z,78.01
2022-10-19T14:39:01.192Z,78.11
2022-10-19T14:41:38.607Z,78.63
2022-10-19T14:44:42.563Z,79.41
2022-10-19T14:47:20.801Z,77.83
2022-10-19T14:49:52.211Z,78.12
2022-10-19T14:52:32.291Z,79.02
2022-10-19T14:55:14.094Z,78.95
2022-10-19T14:57:50.683Z,79.83
2022-10-19T15:00:23.713Z,78.35
2022-10-19T15:03:06.977Z,79.27
2022-10-19T15:05:43.450Z,77.79
2022-10-19T15:08:24.814Z,78.81
2022-10-19T15:10:55.267Z,78.11
2022-10-19T15:13:28.544Z,77.67
2022-10-19T15:15:59.059Z,79.26
2022-10-19T15:18:48.852Z,78.94
2022-10-19T15:21:23.046Z,78.66
2022-10-19T15:23:54.815Z,78.93
2022-10-19T15:26:27.962Z,78.95
2022-10-19T15:29:21.323Z,78.73
2022-10-19T15:31:53.889Z,78.02
2022-10-19T15:34:28.913Z,78.39
2022-10-19T15:37:05.666Z,78.07
2022-10-19T15:39:42.066Z,77.96
2022-10-19T15:42:34.900Z,78.14
2022-10-19T15:45:26.790Z,77.85
2022-10-19T15:48:12.037Z,77.83
2022-10-19T15:50:45.591Z,77.94
2022-10-19T15:53:16.687Z,77.80
2022-10-19T15:55:47.450Z,77.44
2022-10-19T15:58:18.821Z,77.41
2022-10-19T16:00:49.302Z,76.42
2022-10-19T16:03:19.666Z,76.03
2022-10-19T16:05:51.238Z,76.21
2022-10-19T16:08:21.722Z,76.53
2022-10-19T16:10:51.848Z,76.26
2022-10-19T16:13:22.291Z,77.61
2022-10-19T16:16:01.479Z,77.21
2022-10-19T16:18:41.019Z,76.13
2022-10-19T16:21:10.610Z,76.92
2022-10-19T16:23:42.058Z,75.96
2022-10-19T16:26:15.879Z,76.37
2022-10-19T16:28:46.757Z,75.06
2022-10-19T16:31:18.151Z,73.27
2022-10-19T16:33:48.635Z,73.28
2022-10-19T16:36:21.909Z,71.69
2022-10-19T16:38:52.143Z,68.85
2022-10-19T16:41:22.739Z,69.68
2022-10-19T16:43:56.892Z,68.26
2022-10-19T16:46:27.635Z,69.02
2022-10-19T16:48:57.619Z,69.10
2022-10-19T16:51:29.210Z,70.72
2022-10-19T16:54:00.698Z,71.44
2022-10-19T16:56:31.919Z,70.45
2022-10-19T16:59:08.351Z,67.25
2022-10-19T17:01:38.579Z,67.82
2022-10-19T17:04:09.112Z,69.80
2022-10-19T17:06:39.620Z,72.86
2022-10-19T17:12:00.409Z,75.02
2022-10-19T17:14:30.736Z,74.40
2022-10-19T17:17:01.067Z,73.95
2022-10-19T17:19:31.588Z,74.51
2022-10-19T17:22:03.095Z,72.67
2022-10-19T17:24:33.721Z,72.59
2022-10-19T17:27:04.697Z,73.57
2022-10-19T17:29:35.085Z,72.28
2022-10-19T17:32:05.496Z,71.86
2022-10-19T17:34:35.854Z,70.98
2022-10-19T17:37:06.165Z,69.93
2022-10-19T17:39:36.328Z,69.16
2022-10-19T17:42:06.690Z,70.28
2022-10-19T17:44:37.346Z,69.96
2022-10-19T17:47:07.532Z,69.70
2022-10-19T17:49:38.834Z,70.97
2022-10-19T17:52:09.093Z,70.40
2022-10-19T17:54:48.596Z,70.89
2022-10-19T17:57:29.054Z,71.87
2022-10-19T17:59:59.698Z,71.96
2022-10-19T18:02:30.184Z,71.40
2022-10-19T18:05:00.610Z,72.18
2022-10-19T18:07:30.553Z,72.93
2022-10-19T18:10:00.540Z,73.49
2022-10-19T18:12:31.333Z,72.00
2022-10-19T18:15:01.551Z,73.45
2022-10-19T18:17:31.757Z,70.56
2022-10-19T18:20:01.182Z,70.54
2022-10-19T18:22:31.423Z,68.20
2022-10-19T18:25:01.817Z,70.23
2022-10-19T18:27:32.169Z,70.69
2022-10-19T18:30:02.809Z,69.81
2022-10-19T18:32:33.506Z,69.86
2022-10-19T18:35:04.266Z,70.04
2022-10-19T18:37:34.547Z,68.53
2022-10-19T18:40:05.094Z,68.70
2022-10-19T18:42:35.675Z,68.71
2022-10-19T18:45:06.436Z,68.70
2022-10-19T18:47:36.744Z,69.06
2022-10-19T18:50:07.373Z,69.65
2022-10-19T18:52:39.220Z,70.98
2022-10-19T18:55:10.152Z,70.79
2022-10-19T18:57:40.610Z,71.72
2022-10-19T19:00:12.010Z,71.66
2022-10-19T19:02:46.852Z,73.25
2022-10-19T19:05:17.539Z,74.10
2022-10-19T19:07:47.772Z,74.20
2022-10-19T19:10:19.513Z,74.63
2022-10-19T19:12:52.652Z,75.29
2022-10-19T19:15:22.956Z,75.55
2022-10-19T19:17:56.430Z,75.46
2022-10-19T19:20:26.745Z,74.07
2022-10-19T19:22:57.121Z,70.97
2022-10-19T19:25:27.432Z,68.00
2022-10-19T19:27:57.587Z,68.79
2022-10-19T19:30:29.320Z,70.48
2022-10-19T19:32:59.600Z,70.59
2022-10-19T19:35:29.865Z,71.81
2022-10-19T19:38:00.103Z,70.69
2022-10-19T19:40:30.488Z,70.00
2022-10-19T19:43:00.730Z,69.79
2022-10-19T19:45:31.158Z,70.17
2022-10-19T19:48:01.533Z,70.29
2022-10-19T19:50:33.382Z,71.06
2022-10-19T19:53:03.998Z,70.98
2022-10-19T19:55:38.965Z,70.85
2022-10-19T19:58:09.506Z,71.22
2022-10-19T20:00:41.563Z,71.37
2022-10-19T20:03:14.979Z,66.90
2022-10-19T20:05:45.351Z,68.70
2022-10-19T20:08:15.691Z,66.99
2022-10-19T20:10:46.059Z,68.56
2022-10-19T20:13:16.294Z,69.22
2022-10-19T20:15:46.046Z,70.23
2022-10-19T20:18:16.089Z,71.86
2022-10-19T20:20:46.473Z,72.97
2022-10-19T20:23:16.823Z,72.72
2022-10-19T20:25:47.108Z,66.65
2022-10-19T20:28:21.380Z,63.81
2022-10-19T20:31:05.320Z,60.06
2022-10-19T20:33:37.231Z,59.91
2022-10-19T20:36:14.832Z,63.45
2022-10-19T20:38:50.427Z,69.77
2022-10-19T20:41:22.550Z,72.24
2022-10-19T20:43:53.429Z,73.33
2022-10-19T20:46:26.483Z,72.63
2022-10-19T20:49:01.057Z,71.93
2022-10-19T20:51:38.097Z,71.10
2022-10-19T20:54:16.345Z,71.23
2022-10-19T20:56:46.774Z,73.35
2022-10-19T20:59:22.758Z,76.01
2022-10-19T21:01:56.579Z,76.66
2022-10-19T21:04:27.572Z,77.55
2022-10-19T21:06:58.536Z,77.92
2022-10-19T21:09:28.830Z,78.67
2022-10-19T21:11:59.175Z,79.38
2022-10-19T21:14:30.813Z,80.21
2022-10-19T21:17:02.472Z,80.35
2022-10-19T21:19:32.742Z,80.59
2022-10-19T21:22:04.012Z,81.22
2022-10-19T21:24:39.005Z,81.73
2022-10-19T21:27:11.009Z,82.11
2022-10-19T21:29:41.371Z,81.99
2022-10-19T21:32:11.699Z,82.54
2022-10-19T21:34:41.839Z,83.06
2022-10-19T21:37:11.803Z,83.46
2022-10-19T21:39:41.664Z,83.70
2022-10-19T21:42:11.693Z,84.22
2022-10-19T21:44:41.655Z,84.41
2022-10-19T21:47:11.815Z,84.87
2022-10-19T21:49:41.159Z,84.72
2022-10-19T21:52:15.827Z,85.26
2022-10-19T21:54:46.210Z,85.40
2022-10-19T21:57:15.838Z,85.25
2022-10-19T21:59:46.043Z,85.79
2022-10-19T22:02:16.311Z,85.40
2022-10-19T22:04:46.506Z,86.06
2022-10-19T22:07:16.644Z,86.77
2022-10-19T22:09:46.409Z,86.18
2022-10-19T22:12:16.652Z,86.93
2022-10-19T22:14:47.303Z,87.19
2022-10-19T22:17:17.643Z,87.37
2022-10-19T22:19:47.891Z,87.43
2022-10-19T22:22:17.705Z,87.13
2022-10-19T22:24:47.665Z,87.81
2022-10-19T22:27:17.834Z,87.87
2022-10-19T22:29:47.913Z,87.72
2022-10-19T22:32:18.259Z,87.70
2022-10-19T22:34:48.541Z,87.59
2022-10-19T22:37:18.251Z,87.42
2022-10-19T22:39:48.258Z,88.28
2022-10-19T22:42:18.473Z,88.15
2022-10-19T22:44:48.195Z,87.57
2022-10-19T22:47:18.302Z,87.84
2022-10-19T22:49:47.975Z,87.45
2022-10-19T22:52:18.197Z,88.98
2022-10-19T22:54:48.417Z,88.67
2022-10-19T22:57:18.978Z,88.22
2022-10-19T22:59:49.312Z,88.36
2022-10-19T23:02:19.914Z,88.71
2022-10-19T23:04:50.099Z,89.20
2022-10-19T23:07:20.338Z,88.89
2022-10-19T23:09:50.044Z,88.42
2022-10-19T23:12:20.147Z,88.80
2022-10-19T23:14:49.966Z,88.73
2022-10-19T23:17:20.803Z,88.68
2022-10-19T23:19:51.085Z,88.94
2022-10-19T23:22:21.427Z,89.17
2022-10-19T23:24:51.164Z,88.58
2022-10-19T23:27:22.334Z,88.90
2022-10-19T23:29:52.572Z,89.30
2022-10-19T23:32:22.711Z,89.89
2022-10-19T23:34:52.704Z,89.97
2022-10-19T23:37:22.764Z,89.91
2022-10-19T23:39:52.711Z,90.06
2022-10-19T23:42:22.734Z,89.82
2022-10-19T23:44:52.777Z,90.39
2022-10-19T23:47:24.628Z,90.55
2022-10-19T23:49:54.823Z,90.55
2022-10-19T23:52:24.982Z,90.78
2022-10-19T23:54:55.173Z,91.31
2022-10-19T23:57:25.347Z,91.39
2022-10-19T23:59:55.460Z,90.96
